sensor_id;sensor_type;location;lat;lon;timestamp;temperature;humidity
29775;DHT22;16676;51.202;6.774;2023-08-06T00:00:43;20.20;84.60
29775;DHT22;16676;51.202;6.774;2023-08-06T00:04:46;20.20;84.20
29775;DHT22;16676;51.202;6.774;2023-08-06T00:08:49;20.10;84.30
29775;DHT22;16676;51.202;6.774;2023-08-06T00:12:51;20.20;84.30
29775;DHT22;16676;51.202;6.774;2023-08-06T00:16:53;20.20;83.90
29775;DHT22;16676;51.202;6.774;2023-08-06T00:20:55;20.20;83.50
29775;DHT22;16676;51.202;6.774;2023-08-06T00:24:58;20.20;83.30
29775;DHT22;16676;51.202;6.774;2023-08-06T00:29:00;20.20;83.30
29775;DHT22;16676;51.202;6.774;2023-08-06T00:33:02;20.20;83.20
29775;DHT22;16676;51.202;6.774;2023-08-06T00:37:04;20.20;83.10
29775;DHT22;16676;51.202;6.774;2023-08-06T00:41:07;20.20;83.60
29775;DHT22;16676;51.202;6.774;2023-08-06T00:45:09;20.20;82.90
29775;DHT22;16676;51.202;6.774;2023-08-06T00:49:11;20.10;82.90
29775;DHT22;16676;51.202;6.774;2023-08-06T00:53:14;20.20;82.80
29775;DHT22;16676;51.202;6.774;2023-08-06T00:57:17;20.10;82.80
29775;DHT22;16676;51.202;6.774;2023-08-06T01:01:19;20.10;82.90
29775;DHT22;16676;51.202;6.774;2023-08-06T01:05:21;20.10;82.90
29775;DHT22;16676;51.202;6.774;2023-08-06T01:09:32;20.10;83.10
29775;DHT22;16676;51.202;6.774;2023-08-06T01:13:42;20.00;83.30
29775;DHT22;16676;51.202;6.774;2023-08-06T01:17:45;20.00;83.20
29775;DHT22;16676;51.202;6.774;2023-08-06T01:21:48;20.00;82.90
29775;DHT22;16676;51.202;6.774;2023-08-06T01:25:59;20.00;83.10
29775;DHT22;16676;51.202;6.774;2023-08-06T01:30:09;20.00;83.40
29775;DHT22;16676;51.202;6.774;2023-08-06T01:34:17;20.00;83.50
29775;DHT22;16676;51.202;6.774;2023-08-06T01:38:24;19.90;83.40
29775;DHT22;16676;51.202;6.774;2023-08-06T01:42:28;19.90;83.50
29775;DHT22;16676;51.202;6.774;2023-08-06T01:46:30;19.90;83.70
29775;DHT22;16676;51.202;6.774;2023-08-06T01:50:32;20.00;83.30
29775;DHT22;16676;51.202;6.774;2023-08-06T01:54:35;19.90;83.70
29775;DHT22;16676;51.202;6.774;2023-08-06T01:58:37;19.90;83.40
29775;DHT22;16676;51.202;6.774;2023-08-06T02:02:39;19.90;83.70
29775;DHT22;16676;51.202;6.774;2023-08-06T02:06:42;19.90;83.90
29775;DHT22;16676;51.202;6.774;2023-08-06T02:10:46;19.90;83.70
29775;DHT22;16676;51.202;6.774;2023-08-06T02:14:47;19.90;83.90
29775;DHT22;16676;51.202;6.774;2023-08-06T02:18:49;19.90;83.90
29775;DHT22;16676;51.202;6.774;2023-08-06T02:22:51;19.90;84.20
29775;DHT22;16676;51.202;6.774;2023-08-06T02:26:55;19.90;83.80
29775;DHT22;16676;51.202;6.774;2023-08-06T02:30:57;19.90;84.00
29775;DHT22;16676;51.202;6.774;2023-08-06T02:34:59;19.90;84.00
29775;DHT22;16676;51.202;6.774;2023-08-06T02:39:00;19.90;84.00
29775;DHT22;16676;51.202;6.774;2023-08-06T02:43:04;19.90;84.00
29775;DHT22;16676;51.202;6.774;2023-08-06T02:47:06;19.90;84.30
29775;DHT22;16676;51.202;6.774;2023-08-06T02:51:08;19.90;84.20
29775;DHT22;16676;51.202;6.774;2023-08-06T02:55:10;20.00;84.30
29775;DHT22;16676;51.202;6.774;2023-08-06T02:59:13;20.00;84.00
29775;DHT22;16676;51.202;6.774;2023-08-06T03:03:15;20.00;84.30
29775;DHT22;16676;51.202;6.774;2023-08-06T03:07:17;20.00;84.10
29775;DHT22;16676;51.202;6.774;2023-08-06T03:11:19;20.00;84.10
29775;DHT22;16676;51.202;6.774;2023-08-06T03:15:22;20.00;84.00
29775;DHT22;16676;51.202;6.774;2023-08-06T03:19:24;20.00;84.10
29775;DHT22;16676;51.202;6.774;2023-08-06T03:23:26;20.00;84.40
29775;DHT22;16676;51.202;6.774;2023-08-06T03:27:28;20.00;83.90
29775;DHT22;16676;51.202;6.774;2023-08-06T03:31:31;20.00;83.90
29775;DHT22;16676;51.202;6.774;2023-08-06T03:35:33;20.00;84.00
29775;DHT22;16676;51.202;6.774;2023-08-06T03:39:35;20.00;84.10
29775;DHT22;16676;51.202;6.774;2023-08-06T03:43:37;20.00;84.40
29775;DHT22;16676;51.202;6.774;2023-08-06T03:47:40;20.00;84.20
29775;DHT22;16676;51.202;6.774;2023-08-06T03:51:42;19.90;84.20
29775;DHT22;16676;51.202;6.774;2023-08-06T03:55:44;19.90;84.20
29775;DHT22;16676;51.202;6.774;2023-08-06T03:59:46;19.90;83.70
29775;DHT22;16676;51.202;6.774;2023-08-06T04:03:49;20.00;83.80
29775;DHT22;16676;51.202;6.774;2023-08-06T04:07:51;20.00;84.00
29775;DHT22;16676;51.202;6.774;2023-08-06T04:11:53;20.00;83.90
29775;DHT22;16676;51.202;6.774;2023-08-06T04:15:55;19.90;84.00
29775;DHT22;16676;51.202;6.774;2023-08-06T04:20:04;19.90;83.90
29775;DHT22;16676;51.202;6.774;2023-08-06T04:24:06;19.90;83.90
29775;DHT22;16676;51.202;6.774;2023-08-06T04:28:08;19.90;84.00
29775;DHT22;16676;51.202;6.774;2023-08-06T04:32:10;19.80;84.50
29775;DHT22;16676;51.202;6.774;2023-08-06T04:36:13;19.80;84.30
29775;DHT22;16676;51.202;6.774;2023-08-06T04:40:15;19.90;84.30
29775;DHT22;16676;51.202;6.774;2023-08-06T04:44:17;19.80;84.50
29775;DHT22;16676;51.202;6.774;2023-08-06T04:48:19;19.90;84.50
29775;DHT22;16676;51.202;6.774;2023-08-06T04:52:23;19.80;85.10
29775;DHT22;16676;51.202;6.774;2023-08-06T04:56:28;19.80;85.00
29775;DHT22;16676;51.202;6.774;2023-08-06T05:00:30;19.80;85.00
29775;DHT22;16676;51.202;6.774;2023-08-06T05:04:33;19.80;85.50
29775;DHT22;16676;51.202;6.774;2023-08-06T05:08:36;19.70;85.80
29775;DHT22;16676;51.202;6.774;2023-08-06T05:12:38;19.70;85.90
29775;DHT22;16676;51.202;6.774;2023-08-06T05:16:40;19.70;86.20
29775;DHT22;16676;51.202;6.774;2023-08-06T05:20:42;19.70;86.80
29775;DHT22;16676;51.202;6.774;2023-08-06T05:24:45;19.70;86.30
29775;DHT22;16676;51.202;6.774;2023-08-06T05:28:47;19.70;86.80
29775;DHT22;16676;51.202;6.774;2023-08-06T05:32:49;19.70;87.10
29775;DHT22;16676;51.202;6.774;2023-08-06T05:36:51;19.70;87.40
29775;DHT22;16676;51.202;6.774;2023-08-06T05:40:54;19.70;87.10
29775;DHT22;16676;51.202;6.774;2023-08-06T05:44:56;19.70;87.20
29775;DHT22;16676;51.202;6.774;2023-08-06T05:48:58;19.70;87.30
29775;DHT22;16676;51.202;6.774;2023-08-06T05:53:00;19.70;87.40
29775;DHT22;16676;51.202;6.774;2023-08-06T05:57:05;19.70;87.40
29775;DHT22;16676;51.202;6.774;2023-08-06T06:01:07;19.70;87.80
29775;DHT22;16676;51.202;6.774;2023-08-06T06:05:09;19.70;86.90
29775;DHT22;16676;51.202;6.774;2023-08-06T06:09:11;19.70;87.10
29775;DHT22;16676;51.202;6.774;2023-08-06T06:13:14;19.70;87.30
29775;DHT22;16676;51.202;6.774;2023-08-06T06:17:16;19.70;87.00
29775;DHT22;16676;51.202;6.774;2023-08-06T06:21:18;19.70;87.00
29775;DHT22;16676;51.202;6.774;2023-08-06T06:25:20;19.70;87.30
29775;DHT22;16676;51.202;6.774;2023-08-06T06:29:23;19.80;87.70
29775;DHT22;16676;51.202;6.774;2023-08-06T06:33:25;19.70;86.90
29775;DHT22;16676;51.202;6.774;2023-08-06T06:37:27;19.70;86.90
29775;DHT22;16676;51.202;6.774;2023-08-06T06:41:29;19.70;87.40
29775;DHT22;16676;51.202;6.774;2023-08-06T06:45:34;19.80;87.00
29775;DHT22;16676;51.202;6.774;2023-08-06T06:49:36;19.80;87.20
29775;DHT22;16676;51.202;6.774;2023-08-06T06:53:38;19.90;87.30
29775;DHT22;16676;51.202;6.774;2023-08-06T06:57:41;19.90;86.30
29775;DHT22;16676;51.202;6.774;2023-08-06T07:01:44;19.90;86.80
29775;DHT22;16676;51.202;6.774;2023-08-06T07:05:46;19.90;86.80
29775;DHT22;16676;51.202;6.774;2023-08-06T07:09:48;19.90;86.70
29775;DHT22;16676;51.202;6.774;2023-08-06T07:13:55;19.90;86.20
29775;DHT22;16676;51.202;6.774;2023-08-06T07:17:59;20.00;85.90
29775;DHT22;16676;51.202;6.774;2023-08-06T07:22:00;20.00;85.50
29775;DHT22;16676;51.202;6.774;2023-08-06T07:26:02;20.00;85.50
29775;DHT22;16676;51.202;6.774;2023-08-06T07:30:06;20.10;86.40
29775;DHT22;16676;51.202;6.774;2023-08-06T07:34:09;20.10;86.20
29775;DHT22;16676;51.202;6.774;2023-08-06T07:38:11;20.00;86.20
29775;DHT22;16676;51.202;6.774;2023-08-06T07:42:13;20.10;85.90
29775;DHT22;16676;51.202;6.774;2023-08-06T07:46:15;20.10;85.50
29775;DHT22;16676;51.202;6.774;2023-08-06T07:50:18;20.20;85.70
29775;DHT22;16676;51.202;6.774;2023-08-06T07:54:20;20.30;85.50
29775;DHT22;16676;51.202;6.774;2023-08-06T07:58:24;20.40;85.10
29775;DHT22;16676;51.202;6.774;2023-08-06T08:02:26;20.40;84.70
29775;DHT22;16676;51.202;6.774;2023-08-06T08:06:29;20.40;84.70
29775;DHT22;16676;51.202;6.774;2023-08-06T08:10:31;20.50;84.40
29775;DHT22;16676;51.202;6.774;2023-08-06T08:14:33;20.50;84.30
29775;DHT22;16676;51.202;6.774;2023-08-06T08:18:36;20.60;84.30
29775;DHT22;16676;51.202;6.774;2023-08-06T08:22:39;20.60;83.80
29775;DHT22;16676;51.202;6.774;2023-08-06T08:26:41;20.60;83.90
29775;DHT22;16676;51.202;6.774;2023-08-06T08:30:43;20.70;83.60
29775;DHT22;16676;51.202;6.774;2023-08-06T08:34:46;20.70;83.50
29775;DHT22;16676;51.202;6.774;2023-08-06T08:38:49;20.70;83.20
29775;DHT22;16676;51.202;6.774;2023-08-06T08:42:54;20.70;83.50
29775;DHT22;16676;51.202;6.774;2023-08-06T08:46:57;20.80;82.50
29775;DHT22;16676;51.202;6.774;2023-08-06T08:51:00;20.70;82.10
29775;DHT22;16676;51.202;6.774;2023-08-06T08:55:04;20.80;82.50
29775;DHT22;16676;51.202;6.774;2023-08-06T08:59:07;20.80;82.10
29775;DHT22;16676;51.202;6.774;2023-08-06T09:03:09;20.80;81.70
29775;DHT22;16676;51.202;6.774;2023-08-06T09:07:15;20.90;81.40
29775;DHT22;16676;51.202;6.774;2023-08-06T09:11:20;20.90;81.10
29775;DHT22;16676;51.202;6.774;2023-08-06T09:15:24;21.00;80.90
29775;DHT22;16676;51.202;6.774;2023-08-06T09:19:27;21.10;80.90
29775;DHT22;16676;51.202;6.774;2023-08-06T09:23:29;21.00;80.30
29775;DHT22;16676;51.202;6.774;2023-08-06T09:27:33;21.00;80.50
29775;DHT22;16676;51.202;6.774;2023-08-06T09:31:40;21.20;79.70
29775;DHT22;16676;51.202;6.774;2023-08-06T09:35:42;21.10;80.20
29775;DHT22;16676;51.202;6.774;2023-08-06T09:39:44;21.10;80.60
29775;DHT22;16676;51.202;6.774;2023-08-06T09:43:47;21.00;81.50
29775;DHT22;16676;51.202;6.774;2023-08-06T09:47:50;21.00;82.70
29775;DHT22;16676;51.202;6.774;2023-08-06T09:51:52;21.00;83.40
29775;DHT22;16676;51.202;6.774;2023-08-06T09:55:56;21.00;84.00
29775;DHT22;16676;51.202;6.774;2023-08-06T10:00:00;21.00;83.70
29775;DHT22;16676;51.202;6.774;2023-08-06T10:04:03;21.00;84.10
29775;DHT22;16676;51.202;6.774;2023-08-06T10:08:07;21.00;84.00
29775;DHT22;16676;51.202;6.774;2023-08-06T10:12:09;21.00;83.60
29775;DHT22;16676;51.202;6.774;2023-08-06T10:16:13;21.00;83.30
29775;DHT22;16676;51.202;6.774;2023-08-06T10:20:15;21.00;83.60
29775;DHT22;16676;51.202;6.774;2023-08-06T10:24:17;21.00;83.60
29775;DHT22;16676;51.202;6.774;2023-08-06T10:28:19;21.00;83.70
29775;DHT22;16676;51.202;6.774;2023-08-06T10:32:47;21.00;83.80
29775;DHT22;16676;51.202;6.774;2023-08-06T10:36:49;20.90;83.80
29775;DHT22;16676;51.202;6.774;2023-08-06T10:41:03;20.90;83.10
29775;DHT22;16676;51.202;6.774;2023-08-06T10:45:15;20.90;82.60
29775;DHT22;16676;51.202;6.774;2023-08-06T10:49:19;21.00;82.80
29775;DHT22;16676;51.202;6.774;2023-08-06T10:53:21;20.90;81.60
29775;DHT22;16676;51.202;6.774;2023-08-06T10:57:24;21.00;81.50
29775;DHT22;16676;51.202;6.774;2023-08-06T11:01:28;21.00;81.00
29775;DHT22;16676;51.202;6.774;2023-08-06T11:05:32;20.90;81.90
29775;DHT22;16676;51.202;6.774;2023-08-06T11:09:34;21.00;81.40
29775;DHT22;16676;51.202;6.774;2023-08-06T11:13:36;21.00;80.90
29775;DHT22;16676;51.202;6.774;2023-08-06T11:17:40;21.00;81.30
29775;DHT22;16676;51.202;6.774;2023-08-06T11:21:44;21.10;81.30
29775;DHT22;16676;51.202;6.774;2023-08-06T11:25:48;21.10;81.60
29775;DHT22;16676;51.202;6.774;2023-08-06T11:29:50;21.10;81.90
29775;DHT22;16676;51.202;6.774;2023-08-06T11:33:53;21.10;81.60
29775;DHT22;16676;51.202;6.774;2023-08-06T11:37:56;21.10;81.60
29775;DHT22;16676;51.202;6.774;2023-08-06T11:41:58;21.20;82.10
29775;DHT22;16676;51.202;6.774;2023-08-06T11:46:02;21.20;82.20
29775;DHT22;16676;51.202;6.774;2023-08-06T11:50:05;21.20;82.50
29775;DHT22;16676;51.202;6.774;2023-08-06T11:54:09;21.20;84.00
29775;DHT22;16676;51.202;6.774;2023-08-06T11:58:11;21.20;82.80
29775;DHT22;16676;51.202;6.774;2023-08-06T12:02:13;21.20;83.30
29775;DHT22;16676;51.202;6.774;2023-08-06T12:06:15;21.30;82.80
29775;DHT22;16676;51.202;6.774;2023-08-06T12:10:19;21.30;82.30
29775;DHT22;16676;51.202;6.774;2023-08-06T12:14:21;21.30;83.30
29775;DHT22;16676;51.202;6.774;2023-08-06T12:18:23;21.30;83.00
29775;DHT22;16676;51.202;6.774;2023-08-06T12:22:25;21.30;83.00
29775;DHT22;16676;51.202;6.774;2023-08-06T12:26:29;21.30;82.70
29775;DHT22;16676;51.202;6.774;2023-08-06T12:30:31;21.30;83.60
29775;DHT22;16676;51.202;6.774;2023-08-06T12:34:32;21.40;85.20
29775;DHT22;16676;51.202;6.774;2023-08-06T12:38:34;21.40;85.50
29775;DHT22;16676;51.202;6.774;2023-08-06T12:42:38;21.40;85.40
29775;DHT22;16676;51.202;6.774;2023-08-06T12:46:40;21.40;86.00
29775;DHT22;16676;51.202;6.774;2023-08-06T12:50:41;21.40;85.60
29775;DHT22;16676;51.202;6.774;2023-08-06T12:54:43;21.40;86.00
29775;DHT22;16676;51.202;6.774;2023-08-06T12:58:48;21.30;84.00
29775;DHT22;16676;51.202;6.774;2023-08-06T13:02:50;21.30;83.90
29775;DHT22;16676;51.202;6.774;2023-08-06T13:06:52;21.20;83.10
29775;DHT22;16676;51.202;6.774;2023-08-06T13:10:54;21.20;82.10
29775;DHT22;16676;51.202;6.774;2023-08-06T13:14:57;21.10;81.30
29775;DHT22;16676;51.202;6.774;2023-08-06T13:19:00;21.00;81.10
29775;DHT22;16676;51.202;6.774;2023-08-06T13:23:02;21.00;81.00
29775;DHT22;16676;51.202;6.774;2023-08-06T13:27:04;20.90;80.80
29775;DHT22;16676;51.202;6.774;2023-08-06T13:31:07;20.90;80.80
29775;DHT22;16676;51.202;6.774;2023-08-06T13:35:09;20.90;80.50
29775;DHT22;16676;51.202;6.774;2023-08-06T13:39:11;20.80;80.90
29775;DHT22;16676;51.202;6.774;2023-08-06T13:43:17;20.90;81.20
29775;DHT22;16676;51.202;6.774;2023-08-06T13:47:21;21.00;82.00
29775;DHT22;16676;51.202;6.774;2023-08-06T13:51:23;21.10;82.10
29775;DHT22;16676;51.202;6.774;2023-08-06T13:55:25;21.10;86.20
29775;DHT22;16676;51.202;6.774;2023-08-06T13:59:27;21.00;84.60
29775;DHT22;16676;51.202;6.774;2023-08-06T14:03:30;21.10;83.70
29775;DHT22;16676;51.202;6.774;2023-08-06T14:07:32;21.00;83.70
29775;DHT22;16676;51.202;6.774;2023-08-06T14:11:34;21.10;83.20
29775;DHT22;16676;51.202;6.774;2023-08-06T14:15:36;21.00;82.80
29775;DHT22;16676;51.202;6.774;2023-08-06T14:19:41;21.00;82.40
29775;DHT22;16676;51.202;6.774;2023-08-06T14:23:43;21.00;82.20
29775;DHT22;16676;51.202;6.774;2023-08-06T14:27:46;21.00;82.20
29775;DHT22;16676;51.202;6.774;2023-08-06T14:31:49;21.00;82.10
29775;DHT22;16676;51.202;6.774;2023-08-06T14:35:52;21.00;82.20
29775;DHT22;16676;51.202;6.774;2023-08-06T14:39:54;21.10;82.50
29775;DHT22;16676;51.202;6.774;2023-08-06T14:43:56;21.10;82.10
29775;DHT22;16676;51.202;6.774;2023-08-06T14:47:58;21.10;81.90
29775;DHT22;16676;51.202;6.774;2023-08-06T14:52:01;21.00;81.60
29775;DHT22;16676;51.202;6.774;2023-08-06T14:56:03;21.00;81.60
29775;DHT22;16676;51.202;6.774;2023-08-06T15:00:07;21.00;81.60
29775;DHT22;16676;51.202;6.774;2023-08-06T15:04:11;21.00;81.60
29775;DHT22;16676;51.202;6.774;2023-08-06T15:08:14;20.90;81.20
29775;DHT22;16676;51.202;6.774;2023-08-06T15:12:17;20.80;81.30
29775;DHT22;16676;51.202;6.774;2023-08-06T15:16:20;20.80;81.20
29775;DHT22;16676;51.202;6.774;2023-08-06T15:20:22;20.90;81.20
29775;DHT22;16676;51.202;6.774;2023-08-06T15:24:26;20.90;81.40
29775;DHT22;16676;51.202;6.774;2023-08-06T15:28:28;20.90;81.10
29775;DHT22;16676;51.202;6.774;2023-08-06T15:32:30;20.90;81.00
29775;DHT22;16676;51.202;6.774;2023-08-06T15:36:33;20.70;81.00
29775;DHT22;16676;51.202;6.774;2023-08-06T15:40:36;20.70;81.00
29775;DHT22;16676;51.202;6.774;2023-08-06T15:44:38;20.60;80.30
29775;DHT22;16676;51.202;6.774;2023-08-06T15:48:40;20.50;79.60
29775;DHT22;16676;51.202;6.774;2023-08-06T15:52:42;20.60;79.60
29775;DHT22;16676;51.202;6.774;2023-08-06T15:56:45;20.60;79.00
29775;DHT22;16676;51.202;6.774;2023-08-06T16:00:47;20.60;78.90
29775;DHT22;16676;51.202;6.774;2023-08-06T16:04:49;20.60;78.50
29775;DHT22;16676;51.202;6.774;2023-08-06T16:08:51;20.60;78.40
29775;DHT22;16676;51.202;6.774;2023-08-06T16:12:54;20.60;78.50
29775;DHT22;16676;51.202;6.774;2023-08-06T16:16:56;20.50;79.50
29775;DHT22;16676;51.202;6.774;2023-08-06T16:20:58;20.60;78.20
29775;DHT22;16676;51.202;6.774;2023-08-06T16:25:00;20.60;78.10
29775;DHT22;16676;51.202;6.774;2023-08-06T16:29:04;20.60;78.10
29775;DHT22;16676;51.202;6.774;2023-08-06T16:33:05;20.70;78.10
29775;DHT22;16676;51.202;6.774;2023-08-06T16:37:08;20.60;77.20
29775;DHT22;16676;51.202;6.774;2023-08-06T16:41:10;20.70;77.20
29775;DHT22;16676;51.202;6.774;2023-08-06T16:45:14;20.60;77.10
29775;DHT22;16676;51.202;6.774;2023-08-06T16:49:16;20.50;77.00
29775;DHT22;16676;51.202;6.774;2023-08-06T16:53:18;20.50;77.00
29775;DHT22;16676;51.202;6.774;2023-08-06T16:57:19;20.60;76.80
29775;DHT22;16676;51.202;6.774;2023-08-06T17:01:23;20.50;77.10
29775;DHT22;16676;51.202;6.774;2023-08-06T17:05:25;20.50;77.20
29775;DHT22;16676;51.202;6.774;2023-08-06T17:09:27;20.60;77.30
29775;DHT22;16676;51.202;6.774;2023-08-06T17:13:29;20.60;77.60
29775;DHT22;16676;51.202;6.774;2023-08-06T17:17:32;20.60;77.80
29775;DHT22;16676;51.202;6.774;2023-08-06T17:21:34;20.60;78.10
29775;DHT22;16676;51.202;6.774;2023-08-06T17:25:36;20.60;78.20
29775;DHT22;16676;51.202;6.774;2023-08-06T17:29:38;20.70;78.20
29775;DHT22;16676;51.202;6.774;2023-08-06T17:33:41;20.70;78.30
29775;DHT22;16676;51.202;6.774;2023-08-06T17:37:44;20.70;78.90
29775;DHT22;16676;51.202;6.774;2023-08-06T17:41:46;20.70;79.20
29775;DHT22;16676;51.202;6.774;2023-08-06T17:45:48;20.70;79.90
29775;DHT22;16676;51.202;6.774;2023-08-06T17:49:52;20.70;80.30
29775;DHT22;16676;51.202;6.774;2023-08-06T17:53:54;20.70;80.70
29775;DHT22;16676;51.202;6.774;2023-08-06T17:57:55;20.70;80.40
29775;DHT22;16676;51.202;6.774;2023-08-06T18:01:57;20.70;81.20
29775;DHT22;16676;51.202;6.774;2023-08-06T18:06:01;20.70;81.90
29775;DHT22;16676;51.202;6.774;2023-08-06T18:10:03;20.60;82.30
29775;DHT22;16676;51.202;6.774;2023-08-06T18:14:06;20.60;82.20
29775;DHT22;16676;51.202;6.774;2023-08-06T18:18:07;20.60;81.80
29775;DHT22;16676;51.202;6.774;2023-08-06T18:22:12;20.60;81.30
29775;DHT22;16676;51.202;6.774;2023-08-06T18:26:13;20.50;81.20
29775;DHT22;16676;51.202;6.774;2023-08-06T18:30:16;20.40;80.90
29775;DHT22;16676;51.202;6.774;2023-08-06T18:34:17;20.50;80.60
29775;DHT22;16676;51.202;6.774;2023-08-06T18:38:21;20.50;80.40
29775;DHT22;16676;51.202;6.774;2023-08-06T18:42:26;20.50;80.30
29775;DHT22;16676;51.202;6.774;2023-08-06T18:46:28;20.40;80.30
29775;DHT22;16676;51.202;6.774;2023-08-06T18:50:30;20.40;80.10
29775;DHT22;16676;51.202;6.774;2023-08-06T18:54:37;20.40;80.10
29775;DHT22;16676;51.202;6.774;2023-08-06T18:58:39;20.40;79.90
29775;DHT22;16676;51.202;6.774;2023-08-06T19:02:41;20.40;79.60
29775;DHT22;16676;51.202;6.774;2023-08-06T19:06:43;20.40;80.10
29775;DHT22;16676;51.202;6.774;2023-08-06T19:10:46;20.40;79.60
29775;DHT22;16676;51.202;6.774;2023-08-06T19:14:48;20.40;79.90
29775;DHT22;16676;51.202;6.774;2023-08-06T19:18:50;20.40;79.70
29775;DHT22;16676;51.202;6.774;2023-08-06T19:22:53;20.40;79.70
29775;DHT22;16676;51.202;6.774;2023-08-06T19:26:56;20.40;79.50
29775;DHT22;16676;51.202;6.774;2023-08-06T19:30:58;20.40;79.60
29775;DHT22;16676;51.202;6.774;2023-08-06T19:35:01;20.40;79.40
29775;DHT22;16676;51.202;6.774;2023-08-06T19:39:03;20.40;79.40
29775;DHT22;16676;51.202;6.774;2023-08-06T19:43:07;20.40;80.20
29775;DHT22;16676;51.202;6.774;2023-08-06T19:47:10;20.50;80.40
29775;DHT22;16676;51.202;6.774;2023-08-06T19:51:12;20.60;80.20
29775;DHT22;16676;51.202;6.774;2023-08-06T19:55:15;20.60;80.00
29775;DHT22;16676;51.202;6.774;2023-08-06T19:59:18;20.60;80.10
29775;DHT22;16676;51.202;6.774;2023-08-06T20:03:20;20.60;80.00
29775;DHT22;16676;51.202;6.774;2023-08-06T20:07:22;20.60;80.20
29775;DHT22;16676;51.202;6.774;2023-08-06T20:11:24;20.60;80.30
29775;DHT22;16676;51.202;6.774;2023-08-06T20:15:28;20.60;80.00
29775;DHT22;16676;51.202;6.774;2023-08-06T20:19:30;20.60;80.00
29775;DHT22;16676;51.202;6.774;2023-08-06T20:23:32;20.70;79.90
29775;DHT22;16676;51.202;6.774;2023-08-06T20:27:34;20.70;79.70
29775;DHT22;16676;51.202;6.774;2023-08-06T20:31:37;20.70;79.50
29775;DHT22;16676;51.202;6.774;2023-08-06T20:35:39;20.70;79.40
29775;DHT22;16676;51.202;6.774;2023-08-06T20:39:42;20.60;79.10
29775;DHT22;16676;51.202;6.774;2023-08-06T20:43:44;20.60;79.10
29775;DHT22;16676;51.202;6.774;2023-08-06T20:47:47;20.60;79.10
29775;DHT22;16676;51.202;6.774;2023-08-06T20:51:49;20.60;78.80
29775;DHT22;16676;51.202;6.774;2023-08-06T20:55:58;20.60;78.60
29775;DHT22;16676;51.202;6.774;2023-08-06T21:00:00;20.60;78.40
29775;DHT22;16676;51.202;6.774;2023-08-06T21:04:03;20.60;78.20
29775;DHT22;16676;51.202;6.774;2023-08-06T21:08:05;20.60;78.10
29775;DHT22;16676;51.202;6.774;2023-08-06T21:12:07;20.60;77.90
29775;DHT22;16676;51.202;6.774;2023-08-06T21:16:09;20.60;78.20
29775;DHT22;16676;51.202;6.774;2023-08-06T21:20:13;20.60;77.90
29775;DHT22;16676;51.202;6.774;2023-08-06T21:24:15;20.60;77.80
29775;DHT22;16676;51.202;6.774;2023-08-06T21:28:17;20.60;77.90
29775;DHT22;16676;51.202;6.774;2023-08-06T21:32:18;20.60;77.80
29775;DHT22;16676;51.202;6.774;2023-08-06T21:36:22;20.60;77.80
29775;DHT22;16676;51.202;6.774;2023-08-06T21:40:25;20.50;77.70
29775;DHT22;16676;51.202;6.774;2023-08-06T21:44:27;20.60;77.60
29775;DHT22;16676;51.202;6.774;2023-08-06T21:48:29;20.60;77.50
29775;DHT22;16676;51.202;6.774;2023-08-06T21:52:32;20.50;77.60
29775;DHT22;16676;51.202;6.774;2023-08-06T21:56:34;20.60;77.50
29775;DHT22;16676;51.202;6.774;2023-08-06T22:00:36;20.60;77.30
29775;DHT22;16676;51.202;6.774;2023-08-06T22:04:38;20.50;77.30
29775;DHT22;16676;51.202;6.774;2023-08-06T22:08:42;20.50;77.10
29775;DHT22;16676;51.202;6.774;2023-08-06T22:12:44;20.50;76.80
29775;DHT22;16676;51.202;6.774;2023-08-06T22:16:46;20.60;76.70
29775;DHT22;16676;51.202;6.774;2023-08-06T22:20:48;20.50;76.50
29775;DHT22;16676;51.202;6.774;2023-08-06T22:24:52;20.50;76.70
29775;DHT22;16676;51.202;6.774;2023-08-06T22:28:53;20.50;76.20
29775;DHT22;16676;51.202;6.774;2023-08-06T22:32:55;20.50;76.30
29775;DHT22;16676;51.202;6.774;2023-08-06T22:36:57;20.50;76.00
29775;DHT22;16676;51.202;6.774;2023-08-06T22:41:01;20.50;76.20
29775;DHT22;16676;51.202;6.774;2023-08-06T22:45:03;20.50;76.20
29775;DHT22;16676;51.202;6.774;2023-08-06T22:49:05;20.50;76.20
29775;DHT22;16676;51.202;6.774;2023-08-06T22:53:07;20.50;75.80
29775;DHT22;16676;51.202;6.774;2023-08-06T22:57:11;20.50;75.70
29775;DHT22;16676;51.202;6.774;2023-08-06T23:01:12;20.50;75.70
29775;DHT22;16676;51.202;6.774;2023-08-06T23:05:15;20.50;75.50
29775;DHT22;16676;51.202;6.774;2023-08-06T23:09:17;20.40;75.60
29775;DHT22;16676;51.202;6.774;2023-08-06T23:13:20;20.50;75.30
29775;DHT22;16676;51.202;6.774;2023-08-06T23:17:22;20.50;75.30
29775;DHT22;16676;51.202;6.774;2023-08-06T23:21:24;20.50;75.30
29775;DHT22;16676;51.202;6.774;2023-08-06T23:25:26;20.40;75.10
29775;DHT22;16676;51.202;6.774;2023-08-06T23:29:29;20.50;75.30
29775;DHT22;16676;51.202;6.774;2023-08-06T23:33:31;20.50;74.80
29775;DHT22;16676;51.202;6.774;2023-08-06T23:37:33;20.50;75.00
29775;DHT22;16676;51.202;6.774;2023-08-06T23:41:35;20.40;74.40
29775;DHT22;16676;51.202;6.774;2023-08-06T23:45:38;20.40;74.70
29775;DHT22;16676;51.202;6.774;2023-08-06T23:49:40;20.40;74.70
29775;DHT22;16676;51.202;6.774;2023-08-06T23:53:42;20.40;74.90
29775;DHT22;16676;51.202;6.774;2023-08-06T23:57:44;20.40;74.70
